Time;durP1;ratioP1;P1;durP2;ratioP2;P2;SDS_P1;SDS_P2;PMS_P1;PMS_P2;Temp;Humidity;BMP_temperature;BMP_pressure;BME280_temperature;BME280_humidity;BME280_pressure;Samples;Min_cycle;Max_cycle;Signal;HPM_P1;HPM_P2
2023/03/18 00:00:43;;;;;;;21.52;15.68;;;10.10;99.90;;;;;;5022885;28;20045;-78
2023/03/18 00:03:09;;;;;;;17.77;14.27;;;10.00;99.90;;;;;;5019784;28;20033;-78
2023/03/18 00:05:35;;;;;;;20.17;14.60;;;10.00;99.90;;;;;;5023250;28;20124;-78
2023/03/18 00:08:02;;;;;;;22.60;15.73;;;10.00;99.90;;;;;;5017474;28;20187;-79
2023/03/18 00:10:27;;;;;;;23.50;15.82;;;10.00;99.90;;;;;;5023097;28;20406;-79
2023/03/18 00:12:53;;;;;;;19.60;15.32;;;10.00;99.90;;;;;;5012104;28;20040;-79
2023/03/18 00:15:19;;;;;;;17.13;13.68;;;10.00;99.90;;;;;;4992588;28;20553;-78
2023/03/18 00:17:47;;;;;;;17.67;14.23;;;9.90;99.90;;;;;;5024201;28;20041;-79
2023/03/18 00:20:15;;;;;;;22.92;13.30;;;9.90;99.90;;;;;;5023075;28;20049;-79
2023/03/18 00:22:42;;;;;;;25.98;15.30;;;9.80;99.90;;;;;;5023673;28;20045;-79
2023/03/18 00:25:10;;;;;;;19.58;13.90;;;9.90;99.90;;;;;;5023862;28;20041;-78
2023/03/18 00:27:37;;;;;;;24.85;15.55;;;9.90;99.90;;;;;;5024137;28;20103;-79
2023/03/18 00:30:04;;;;;;;18.15;13.00;;;9.90;99.90;;;;;;5023996;28;20405;-79
2023/03/18 00:32:31;;;;;;;23.92;14.85;;;9.80;99.90;;;;;;5023451;28;20097;-79
2023/03/18 00:34:57;;;;;;;20.50;15.88;;;9.80;99.90;;;;;;5023144;28;20052;-79
2023/03/18 00:37:30;;;;;;;21.73;14.95;;;9.80;99.90;;;;;;5004684;28;20527;-78
2023/03/18 00:39:58;;;;;;;20.00;16.70;;;9.80;99.90;;;;;;5024664;28;20402;-78
2023/03/18 00:42:24;;;;;;;17.77;15.25;;;9.80;99.90;;;;;;5017917;28;20089;-78
2023/03/18 00:44:50;;;;;;;23.77;16.70;;;9.80;99.90;;;;;;5005230;28;20135;-79
2023/03/18 00:47:15;;;;;;;23.63;17.55;;;9.80;99.90;;;;;;5025922;28;20045;-79
2023/03/18 00:49:41;;;;;;;23.85;17.20;;;9.80;99.90;;;;;;5021482;28;20461;-79
2023/03/18 00:52:07;;;;;;;22.02;19.30;;;9.80;99.90;;;;;;5006423;28;20042;-79
2023/03/18 00:54:34;;;;;;;21.63;16.63;;;9.80;99.90;;;;;;5026102;28;20041;-79
2023/03/18 00:57:00;;;;;;;21.45;16.08;;;9.80;99.90;;;;;;5027487;28;20056;-79
2023/03/18 00:59:26;;;;;;;40.75;20.15;;;9.80;99.90;;;;;;5025468;28;20037;-78
2023/03/18 01:01:52;;;;;;;26.67;16.70;;;9.80;99.90;;;;;;5006256;28;20050;-79
2023/03/18 01:04:18;;;;;;;22.40;16.83;;;9.80;99.90;;;;;;5005991;28;20041;-79
2023/03/18 01:06:43;;;;;;;24.27;16.90;;;9.80;99.90;;;;;;5006440;28;20062;-79
2023/03/18 01:09:10;;;;;;;31.63;19.52;;;9.70;99.90;;;;;;5023334;28;20053;-79
2023/03/18 01:11:36;;;;;;;25.90;19.42;;;9.70;99.90;;;;;;5027069;28;20060;-79
2023/03/18 01:14:02;;;;;;;23.52;18.35;;;9.70;99.90;;;;;;5025470;28;20033;-79
2023/03/18 01:16:28;;;;;;;22.95;17.98;;;9.70;99.90;;;;;;5026963;28;20048;-79
2023/03/18 01:18:54;;;;;;;27.13;19.05;;;9.70;99.90;;;;;;5027041;28;20072;-78
2023/03/18 01:21:20;;;;;;;21.90;17.80;;;9.60;99.90;;;;;;5007519;28;20084;-79
2023/03/18 01:23:45;;;;;;;30.08;19.77;;;9.60;99.90;;;;;;5007216;28;20046;-78
2023/03/18 01:26:11;;;;;;;29.75;20.23;;;9.50;99.90;;;;;;5022278;28;20045;-79
2023/03/18 01:28:37;;;;;;;24.30;17.88;;;9.50;99.90;;;;;;5005826;28;20057;-79
2023/03/18 01:31:03;;;;;;;28.83;20.40;;;9.40;99.90;;;;;;5006386;28;20053;-79
2023/03/18 01:33:29;;;;;;;24.20;19.58;;;9.30;99.90;;;;;;5007494;28;20117;-79
2023/03/18 01:35:57;;;;;;;30.80;17.60;;;9.20;99.90;;;;;;5006337;28;20642;-78
2023/03/18 01:38:24;;;;;;;23.95;17.83;;;9.20;99.90;;;;;;5021765;28;20099;-79
2023/03/18 01:40:53;;;;;;;23.63;19.05;;;9.10;99.90;;;;;;5025524;28;20056;-79
2023/03/18 01:43:20;;;;;;;24.48;17.13;;;9.10;99.90;;;;;;5026256;28;20046;-79
2023/03/18 01:45:54;;;;;;;22.77;17.27;;;9.00;99.90;;;;;;5025065;28;20110;-78
2023/03/18 01:48:24;;;;;;;22.42;17.85;;;8.90;99.90;;;;;;5025902;28;20053;-78
2023/03/18 01:50:54;;;;;;;26.52;21.00;;;8.90;99.90;;;;;;5007384;28;20045;-78
2023/03/18 01:53:21;;;;;;;27.02;16.50;;;8.80;99.90;;;;;;5025647;28;20191;-79
2023/03/18 01:55:49;;;;;;;23.23;19.63;;;8.70;99.90;;;;;;5025249;28;20893;-79
2023/03/18 01:58:23;;;;;;;25.25;17.90;;;8.70;99.90;;;;;;5023846;28;20080;-79
2023/03/18 02:00:54;;;;;;;28.27;19.80;;;8.70;99.90;;;;;;5025851;28;20106;-78
2023/03/18 02:03:21;;;;;;;33.67;19.42;;;8.60;99.90;;;;;;5024317;28;20056;-78
2023/03/18 02:05:48;;;;;;;21.75;17.63;;;8.60;99.90;;;;;;5024868;28;20088;-79
2023/03/18 02:08:15;;;;;;;25.23;19.70;;;8.60;99.90;;;;;;5008870;28;20402;-79
2023/03/18 02:13:11;;;;;;;27.42;20.60;;;8.50;99.90;;;;;;5027320;28;20071;-78
2023/03/18 02:15:51;;;;;;;30.23;20.05;;;8.50;99.90;;;;;;5045728;28;20416;-78
2023/03/18 02:18:23;;;;;;;26.45;19.63;;;8.40;99.90;;;;;;5045302;28;20041;-78
2023/03/18 02:21:14;;;;;;;20.73;18.42;;;8.40;99.90;;;;;;5044765;28;20049;-78
2023/03/18 02:24:05;;;;;;;28.50;19.38;;;8.40;99.90;;;;;;5026165;28;20041;-78
2023/03/18 02:26:34;;;;;;;21.40;15.88;;;8.30;99.90;;;;;;5025507;28;20754;-79
2023/03/18 02:29:04;;;;;;;23.65;19.67;;;8.30;99.90;;;;;;5025225;28;20053;-78
2023/03/18 02:31:32;;;;;;;28.42;20.88;;;8.30;99.90;;;;;;5024590;28;20040;-78
2023/03/18 02:33:58;;;;;;;30.45;19.58;;;8.20;99.90;;;;;;5025937;28;20508;-78
2023/03/18 02:36:27;;;;;;;33.78;20.70;;;8.20;99.90;;;;;;5006762;28;20065;-78
2023/03/18 02:38:53;;;;;;;28.45;20.63;;;8.10;99.90;;;;;;5007868;28;20120;-78
2023/03/18 02:41:25;;;;;;;25.95;20.98;;;8.20;99.90;;;;;;5024985;28;20133;-78
2023/03/18 02:43:51;;;;;;;29.65;18.77;;;8.10;99.90;;;;;;5025574;28;20046;-78
2023/03/18 02:46:32;;;;;;;29.25;20.67;;;8.00;99.90;;;;;;5025180;28;20100;-78
2023/03/18 02:49:00;;;;;;;23.80;19.58;;;8.00;99.90;;;;;;5031362;28;20048;-78
2023/03/18 02:51:27;;;;;;;32.00;22.42;;;8.00;99.90;;;;;;5026724;28;20555;-78
2023/03/18 02:54:01;;;;;;;29.75;20.13;;;7.90;99.90;;;;;;5045097;28;20040;-78
2023/03/18 02:56:28;;;;;;;28.65;19.80;;;7.90;99.90;;;;;;5027210;28;20081;-78
2023/03/18 02:58:54;;;;;;;27.88;22.10;;;7.90;99.90;;;;;;5038765;28;20048;-78
2023/03/18 03:01:19;;;;;;;24.77;20.27;;;7.80;99.90;;;;;;5024846;28;20409;-78
2023/03/18 03:03:45;;;;;;;22.60;19.90;;;7.80;99.90;;;;;;5012193;28;20091;-78
2023/03/18 03:06:11;;;;;;;31.58;19.20;;;7.70;99.90;;;;;;5025020;28;20436;-78
2023/03/18 03:08:37;;;;;;;24.58;18.60;;;7.70;99.90;;;;;;5024474;28;20038;-78
2023/03/18 03:11:04;;;;;;;22.17;19.23;;;7.70;99.90;;;;;;5024007;28;20508;-78
2023/03/18 03:13:29;;;;;;;36.88;22.05;;;7.60;99.90;;;;;;5007740;28;20131;-78
2023/03/18 03:15:55;;;;;;;27.63;19.77;;;7.60;99.90;;;;;;5007390;28;20050;-78
2023/03/18 03:18:21;;;;;;;30.60;22.15;;;7.60;99.90;;;;;;5006786;28;20084;-78
2023/03/18 03:20:49;;;;;;;30.98;24.40;;;7.60;99.90;;;;;;5006318;28;20394;-78
2023/03/18 03:23:16;;;;;;;27.95;20.30;;;7.60;99.90;;;;;;5024627;28;20033;-78
2023/03/18 03:25:43;;;;;;;28.90;19.58;;;7.60;99.90;;;;;;4990409;28;20064;-78
2023/03/18 03:28:10;;;;;;;35.83;21.92;;;7.60;99.90;;;;;;5006325;28;20120;-78
2023/03/18 03:30:36;;;;;;;34.05;23.15;;;7.50;99.90;;;;;;5006867;28;20131;-78
2023/03/18 03:33:02;;;;;;;31.55;22.98;;;7.50;99.90;;;;;;5024661;28;20529;-78
2023/03/18 03:35:28;;;;;;;30.52;21.00;;;7.50;99.90;;;;;;5039308;28;20699;-78
2023/03/18 03:37:54;;;;;;;37.42;24.83;;;7.50;99.90;;;;;;5024482;28;20112;-78
2023/03/18 03:40:20;;;;;;;33.00;22.08;;;7.50;99.90;;;;;;5024045;28;20228;-78
2023/03/18 03:42:47;;;;;;;42.00;25.48;;;7.50;99.90;;;;;;4987284;28;20053;-78
2023/03/18 03:45:15;;;;;;;33.28;23.17;;;7.50;99.90;;;;;;5004446;28;20445;-79
2023/03/18 03:47:42;;;;;;;31.58;23.67;;;7.50;99.90;;;;;;4986690;28;20078;-79
2023/03/18 03:50:09;;;;;;;41.97;25.90;;;7.50;99.90;;;;;;5018648;28;20049;-79
2023/03/18 03:52:36;;;;;;;35.05;26.25;;;7.50;99.90;;;;;;4987117;28;20046;-79
2023/03/18 03:55:03;;;;;;;34.55;24.48;;;7.50;99.90;;;;;;5004263;28;20125;-79
2023/03/18 03:57:28;;;;;;;43.08;26.00;;;7.50;99.90;;;;;;4971409;28;20049;-79
2023/03/18 03:59:55;;;;;;;36.95;25.73;;;7.50;99.90;;;;;;4971063;28;20490;-79
2023/03/18 04:02:22;;;;;;;38.83;27.70;;;7.60;99.90;;;;;;5021393;28;20046;-78
2023/03/18 04:04:49;;;;;;;36.67;27.40;;;7.50;99.90;;;;;;5021599;28;20060;-79
2023/03/18 04:07:15;;;;;;;36.72;26.67;;;7.60;99.90;;;;;;5004344;28;20042;-79
2023/03/18 04:09:41;;;;;;;43.42;29.45;;;7.60;99.90;;;;;;4987117;28;20149;-79
2023/03/18 04:12:07;;;;;;;42.15;27.85;;;7.50;99.90;;;;;;5004091;28;20121;-79
2023/03/18 04:14:33;;;;;;;37.80;24.77;;;7.60;99.90;;;;;;5019756;28;20042;-79
2023/03/18 04:16:59;;;;;;;44.33;29.42;;;7.60;99.90;;;;;;5020823;28;20378;-79
2023/03/18 04:19:26;;;;;;;43.50;25.55;;;7.60;99.90;;;;;;5019785;28;20134;-79
2023/03/18 04:21:52;;;;;;;42.30;27.92;;;7.60;99.90;;;;;;4990077;28;20058;-79
2023/03/18 04:24:19;;;;;;;39.92;25.70;;;7.70;99.90;;;;;;5023289;28;20135;-79
2023/03/18 04:26:46;;;;;;;45.00;26.58;;;7.70;99.90;;;;;;5007170;28;20038;-79
2023/03/18 04:29:12;;;;;;;39.50;27.63;;;7.70;99.90;;;;;;5006681;28;20042;-78
2023/03/18 04:31:38;;;;;;;45.97;27.85;;;7.70;99.90;;;;;;4990374;28;20044;-79
2023/03/18 04:34:03;;;;;;;45.92;24.40;;;7.80;99.90;;;;;;5007681;28;20076;-79
2023/03/18 04:36:29;;;;;;;49.65;28.27;;;7.80;99.90;;;;;;5007359;28;20131;-79
2023/03/18 04:38:58;;;;;;;44.60;28.48;;;7.80;99.90;;;;;;5008021;28;20045;-79
2023/03/18 04:41:25;;;;;;;49.08;25.48;;;7.80;99.90;;;;;;5023204;28;20444;-78
2023/03/18 04:43:50;;;;;;;61.30;34.33;;;7.80;99.90;;;;;;4990428;28;20042;-79
2023/03/18 04:46:16;;;;;;;48.72;20.98;;;7.80;99.90;;;;;;5018958;28;20048;-79
2023/03/18 04:48:42;;;;;;;33.17;19.92;;;7.80;99.90;;;;;;5007473;28;20073;-78
2023/03/18 04:51:08;;;;;;;26.40;14.88;;;7.80;99.90;;;;;;5006334;28;20461;-79
2023/03/18 04:53:35;;;;;;;14.82;10.68;;;7.80;99.90;;;;;;5007819;28;20057;-79
2023/03/18 04:56:01;;;;;;;13.07;11.75;;;7.80;99.90;;;;;;4989914;28;20041;-79
2023/03/18 04:58:27;;;;;;;16.27;10.20;;;7.80;99.90;;;;;;5008199;28;20085;-79
2023/03/18 05:00:53;;;;;;;10.35;9.35;;;7.80;99.90;;;;;;5019377;28;20056;-78
2023/03/18 05:03:19;;;;;;;24.92;12.73;;;7.80;99.90;;;;;;5026953;28;20103;-79
2023/03/18 05:05:45;;;;;;;19.88;8.40;;;7.80;99.90;;;;;;5026229;28;20440;-79
2023/03/18 05:08:11;;;;;;;20.08;11.68;;;7.80;99.90;;;;;;5026870;28;20049;-79
2023/03/18 05:10:39;;;;;;;18.67;10.60;;;7.90;99.90;;;;;;4994481;28;20387;-79
2023/03/18 05:13:05;;;;;;;11.65;8.55;;;7.90;99.90;;;;;;5007024;28;20077;-79
2023/03/18 05:15:31;;;;;;;13.70;10.05;;;7.90;99.90;;;;;;4989664;28;20050;-79
2023/03/18 05:17:57;;;;;;;10.35;8.00;;;7.90;99.90;;;;;;5007562;28;20042;-79
2023/03/18 05:20:23;;;;;;;14.52;9.00;;;7.90;99.90;;;;;;5005625;28;20046;-79
2023/03/18 05:22:48;;;;;;;8.73;6.35;;;7.90;99.90;;;;;;4989510;28;20072;-79
2023/03/18 05:25:14;;;;;;;23.95;8.85;;;8.00;99.90;;;;;;4978761;28;20033;-79
2023/03/18 05:27:40;;;;;;;16.33;6.53;;;8.00;99.90;;;;;;5011979;28;20482;-79
2023/03/18 05:30:08;;;;;;;7.85;4.28;;;8.00;99.90;;;;;;4989035;28;20049;-79
2023/03/18 05:32:34;;;;;;;11.88;5.80;;;8.00;99.90;;;;;;5007054;28;20049;-78
2023/03/18 05:34:59;;;;;;;14.88;5.35;;;8.00;99.90;;;;;;4987853;28;20053;-79
2023/03/18 05:37:25;;;;;;;14.20;4.97;;;8.00;99.90;;;;;;4989262;28;20537;-79
2023/03/18 05:39:52;;;;;;;9.18;3.50;;;8.00;99.90;;;;;;5012991;28;20041;-79
2023/03/18 05:42:18;;;;;;;6.78;3.58;;;8.00;99.90;;;;;;5026323;28;20041;-78
2023/03/18 05:44:44;;;;;;;9.65;3.47;;;8.00;99.90;;;;;;5024010;28;20044;-79
2023/03/18 05:47:10;;;;;;;11.00;3.95;;;8.00;99.90;;;;;;5005958;28;20037;-79
2023/03/18 05:49:36;;;;;;;10.73;4.03;;;8.00;99.90;;;;;;4988281;28;20081;-78
2023/03/18 05:52:02;;;;;;;11.80;5.13;;;8.10;99.90;;;;;;5006324;28;20053;-79
2023/03/18 05:54:27;;;;;;;14.30;4.63;;;8.10;99.90;;;;;;5006956;28;20056;-78
2023/03/18 05:56:53;;;;;;;11.65;4.68;;;8.10;99.90;;;;;;4988904;28;20132;-79
2023/03/18 05:59:20;;;;;;;9.40;5.32;;;8.10;99.90;;;;;;4988405;28;20958;-78
2023/03/18 06:01:47;;;;;;;9.45;4.43;;;8.10;99.90;;;;;;5006251;28;20038;-78
2023/03/18 06:04:14;;;;;;;14.10;4.93;;;8.10;99.90;;;;;;5018185;28;20049;-79
2023/03/18 06:06:40;;;;;;;13.30;6.13;;;8.10;99.90;;;;;;5008556;28;20129;-78
2023/03/18 06:09:10;;;;;;;16.13;6.28;;;8.10;99.90;;;;;;5006371;28;20128;-79
2023/03/18 06:11:37;;;;;;;12.20;6.40;;;8.10;99.90;;;;;;4988840;28;20054;-79
2023/03/18 06:14:04;;;;;;;13.52;6.18;;;8.10;99.90;;;;;;5005678;28;20053;-79
2023/03/18 06:16:31;;;;;;;19.30;6.90;;;8.10;99.90;;;;;;5021145;28;20382;-79
2023/03/18 06:18:57;;;;;;;17.20;7.28;;;8.10;99.90;;;;;;5001332;28;20148;-78
2023/03/18 06:21:23;;;;;;;11.95;5.10;;;8.10;99.90;;;;;;5006868;28;20120;-78
2023/03/18 06:23:49;;;;;;;12.43;6.90;;;8.10;99.90;;;;;;4988700;28;20463;-78
2023/03/18 06:26:15;;;;;;;22.13;7.20;;;8.10;99.90;;;;;;5020444;28;20045;-78
2023/03/18 06:28:41;;;;;;;15.00;5.30;;;8.10;99.90;;;;;;4971780;28;20453;-78
2023/03/18 06:31:07;;;;;;;16.55;6.15;;;8.00;99.90;;;;;;5005472;28;20125;-78
2023/03/18 06:33:32;;;;;;;16.52;6.45;;;8.10;99.90;;;;;;5005867;28;20045;-78
2023/03/18 06:35:59;;;;;;;14.60;5.60;;;8.10;99.90;;;;;;5020235;28;20046;-78
2023/03/18 06:38:26;;;;;;;10.63;5.18;;;8.10;99.90;;;;;;5006033;28;20053;-78
2023/03/18 06:40:52;;;;;;;15.90;6.03;;;8.10;99.90;;;;;;5005324;28;20050;-78
2023/03/18 06:43:17;;;;;;;11.10;5.50;;;8.10;99.90;;;;;;4986978;28;20728;-78
2023/03/18 06:45:43;;;;;;;14.27;6.15;;;8.20;99.90;;;;;;5005476;28;20050;-78
2023/03/18 06:48:09;;;;;;;15.05;5.90;;;8.20;99.90;;;;;;5004989;28;20052;-78
2023/03/18 06:50:37;;;;;;;11.95;4.80;;;8.20;99.90;;;;;;4986597;28;20054;-78
2023/03/18 06:53:04;;;;;;;16.33;6.80;;;8.30;99.90;;;;;;4987764;28;20052;-78
2023/03/18 06:55:29;;;;;;;11.23;5.55;;;8.20;99.90;;;;;;5010451;28;20541;-78
2023/03/18 06:57:56;;;;;;;9.77;5.35;;;8.30;99.90;;;;;;4988116;28;20034;-79
2023/03/18 07:00:23;;;;;;;16.85;7.25;;;8.30;99.90;;;;;;5005035;28;20476;-79
2023/03/18 07:02:49;;;;;;;20.13;8.18;;;8.30;99.90;;;;;;5003915;28;20088;-79
2023/03/18 07:05:16;;;;;;;17.95;7.10;;;8.40;99.90;;;;;;5003911;28;20050;-79
2023/03/18 07:07:42;;;;;;;14.80;6.50;;;8.40;99.90;;;;;;4987079;28;20034;-78
2023/03/18 07:10:16;;;;;;;12.20;7.00;;;8.50;99.90;;;;;;5004758;28;20112;-79
2023/03/18 07:12:41;;;;;;;11.82;6.13;;;8.50;99.90;;;;;;5007666;28;20037;-79
2023/03/18 07:15:07;;;;;;;15.65;6.88;;;8.50;99.90;;;;;;5003661;28;20037;-79
2023/03/18 07:17:33;;;;;;;11.07;6.45;;;8.50;99.90;;;;;;4992868;28;20095;-79
2023/03/18 07:19:58;;;;;;;13.23;6.68;;;8.50;99.90;;;;;;5004324;28;20142;-80
2023/03/18 07:22:25;;;;;;;14.23;7.03;;;8.60;99.90;;;;;;5004626;28;20030;-80
2023/03/18 07:24:51;;;;;;;14.48;6.97;;;8.60;99.90;;;;;;5018906;28;20054;-81
2023/03/18 07:27:16;;;;;;;12.63;6.53;;;8.60;99.90;;;;;;5004176;28;20492;-80
2023/03/18 07:29:42;;;;;;;12.13;7.68;;;8.60;99.90;;;;;;4995471;28;20057;-79
2023/03/18 07:32:08;;;;;;;13.45;6.15;;;8.70;99.90;;;;;;5008511;28;20048;-79
2023/03/18 07:34:34;;;;;;;16.48;6.57;;;8.70;99.90;;;;;;5018703;28;20038;-80
2023/03/18 07:37:01;;;;;;;15.20;6.78;;;8.80;99.90;;;;;;5004844;28;20045;-80
2023/03/18 07:39:27;;;;;;;13.80;5.70;;;8.80;99.90;;;;;;4991527;28;20049;-80
2023/03/18 07:41:53;;;;;;;15.98;7.47;;;8.80;99.90;;;;;;5004498;28;20144;-80
2023/03/18 07:44:18;;;;;;;13.60;6.53;;;8.90;99.90;;;;;;5004793;28;20050;-80
2023/03/18 07:46:44;;;;;;;15.07;6.75;;;9.00;99.90;;;;;;5004854;28;20485;-78
2023/03/18 07:49:10;;;;;;;10.02;5.65;;;9.00;99.90;;;;;;5001499;28;20046;-80
2023/03/18 07:51:36;;;;;;;13.80;6.18;;;9.10;99.90;;;;;;4987064;28;20053;-80
2023/03/18 07:54:03;;;;;;;10.50;5.93;;;9.10;99.90;;;;;;5005905;28;20092;-79
2023/03/18 07:56:29;;;;;;;17.90;6.88;;;9.20;99.90;;;;;;5007894;28;20289;-79
2023/03/18 07:58:55;;;;;;;10.80;5.97;;;9.20;99.90;;;;;;5009047;28;20397;-80
2023/03/18 08:01:20;;;;;;;10.95;6.57;;;9.30;99.90;;;;;;4991703;28;20129;-80
2023/03/18 08:03:46;;;;;;;13.25;7.07;;;9.30;99.90;;;;;;4990731;28;20049;-79
2023/03/18 08:06:14;;;;;;;11.50;5.50;;;9.30;99.90;;;;;;4989372;28;20046;-80
2023/03/18 08:08:40;;;;;;;11.23;6.53;;;9.30;99.90;;;;;;5008105;28;20045;-80
2023/03/18 08:11:08;;;;;;;12.13;7.47;;;9.40;99.90;;;;;;5007813;28;20045;-78
2023/03/18 08:13:34;;;;;;;13.18;5.95;;;9.40;99.90;;;;;;4974663;28;20046;-79
2023/03/18 08:15:59;;;;;;;15.18;7.55;;;9.40;99.90;;;;;;4994501;28;20049;-79
2023/03/18 08:18:25;;;;;;;12.43;7.53;;;9.40;99.90;;;;;;5010461;28;20118;-79
2023/03/18 08:20:52;;;;;;;14.27;7.50;;;9.50;99.90;;;;;;5006277;28;20049;-78
2023/03/18 08:23:18;;;;;;;11.85;6.53;;;9.40;99.90;;;;;;5007724;28;20088;-79
2023/03/18 08:25:50;;;;;;;17.58;7.72;;;9.50;99.90;;;;;;4977436;28;20199;-79
2023/03/18 08:28:17;;;;;;;13.40;7.55;;;9.50;99.90;;;;;;5025025;28;20056;-80
2023/03/18 08:30:43;;;;;;;12.13;6.93;;;9.60;99.90;;;;;;5010510;28;20076;-79
2023/03/18 08:33:09;;;;;;;13.52;6.22;;;9.60;99.90;;;;;;4995861;28;20065;-79
2023/03/18 08:35:35;;;;;;;13.40;7.15;;;9.60;99.90;;;;;;5008812;28;20513;-79
2023/03/18 08:38:02;;;;;;;11.68;6.65;;;9.60;99.90;;;;;;5006180;28;20070;-80
2023/03/18 08:40:28;;;;;;;14.65;8.05;;;9.60;99.90;;;;;;5008516;28;20045;-78
2023/03/18 08:42:53;;;;;;;13.20;7.35;;;9.70;99.90;;;;;;5007832;28;20119;-80
2023/03/18 08:45:19;;;;;;;13.35;6.78;;;9.70;99.90;;;;;;4989400;28;20565;-79
2023/03/18 08:47:45;;;;;;;8.95;6.47;;;9.70;99.90;;;;;;5021548;28;20454;-79
2023/03/18 08:50:13;;;;;;;13.77;7.10;;;9.70;99.90;;;;;;5006483;28;20124;-79
2023/03/18 08:52:40;;;;;;;15.70;8.73;;;9.80;99.90;;;;;;4990021;28;20045;-79
2023/03/18 08:55:06;;;;;;;10.88;6.03;;;9.80;99.90;;;;;;5007420;28;20046;-79
2023/03/18 08:57:33;;;;;;;17.83;7.68;;;9.80;99.90;;;;;;4989908;28;20541;-79
2023/03/18 08:59:58;;;;;;;12.40;6.93;;;9.90;99.90;;;;;;5006768;28;20161;-80
2023/03/18 09:02:24;;;;;;;11.45;6.80;;;9.90;99.90;;;;;;4973754;28;20124;-79
2023/03/18 09:04:52;;;;;;;13.38;7.90;;;10.00;99.90;;;;;;5006025;28;20191;-80
2023/03/18 09:07:17;;;;;;;9.25;6.55;;;10.00;99.90;;;;;;5006875;28;20046;-80
2023/03/18 09:09:43;;;;;;;13.35;6.82;;;10.00;99.90;;;;;;5006917;28;20045;-80
2023/03/18 09:12:10;;;;;;;10.93;6.80;;;10.10;99.90;;;;;;5006605;28;20465;-79
2023/03/18 09:14:36;;;;;;;9.68;6.05;;;10.10;99.90;;;;;;4989643;28;20068;-78
2023/03/18 09:17:01;;;;;;;9.50;5.70;;;10.20;99.90;;;;;;4989749;28;20050;-80
2023/03/18 09:19:27;;;;;;;10.27;7.30;;;10.20;99.90;;;;;;5006475;28;20069;-77
2023/03/18 09:21:53;;;;;;;9.15;5.95;;;10.30;99.90;;;;;;5006020;28;20050;-78
2023/03/18 09:24:18;;;;;;;10.43;5.90;;;10.30;99.90;;;;;;5004501;28;20081;-77
2023/03/18 09:26:44;;;;;;;9.65;5.65;;;10.40;99.90;;;;;;5004921;28;20449;-78
2023/03/18 09:29:10;;;;;;;15.50;6.65;;;10.40;99.90;;;;;;5019985;28;20084;-77
2023/03/18 09:31:37;;;;;;;10.45;6.47;;;10.50;99.90;;;;;;4996976;28;20518;-78
2023/03/18 09:34:03;;;;;;;12.65;6.53;;;10.50;99.90;;;;;;5004714;28;20140;-78
2023/03/18 09:36:28;;;;;;;9.43;5.60;;;10.50;99.90;;;;;;4972830;28;20155;-78
2023/03/18 09:38:54;;;;;;;8.30;5.03;;;10.50;99.90;;;;;;5005146;28;20042;-77
2023/03/18 09:41:48;;;;;;;11.68;5.63;;;10.60;99.90;;;;;;5004996;28;20050;-78
2023/03/18 09:44:34;;;;;;;11.45;5.97;;;10.60;99.90;;;;;;5005092;28;20077;-78
2023/03/18 09:47:34;;;;;;;8.27;5.35;;;10.60;99.90;;;;;;5014655;28;20038;-78
2023/03/18 09:50:18;;;;;;;8.85;4.82;;;10.70;99.90;;;;;;4996180;28;20136;-78
2023/03/18 09:53:18;;;;;;;12.63;5.63;;;10.80;99.90;;;;;;5005439;28;20053;-78
2023/03/18 09:56:00;;;;;;;7.68;5.00;;;10.80;99.90;;;;;;4965108;28;20536;-78
2023/03/18 09:58:28;;;;;;;8.75;5.00;;;10.80;99.90;;;;;;4972463;28;20038;-78
2023/03/18 10:01:01;;;;;;;11.63;5.63;;;10.90;99.90;;;;;;4988534;28;20128;-78
2023/03/18 10:03:52;;;;;;;9.48;5.20;;;10.90;99.90;;;;;;4976498;28;20044;-78
2023/03/18 10:06:24;;;;;;;11.77;4.82;;;11.00;99.90;;;;;;5010819;28;20046;-78
2023/03/18 10:09:27;;;;;;;5.13;3.97;;;11.00;99.90;;;;;;5004632;28;20446;-78
2023/03/18 10:12:03;;;;;;;7.75;3.33;;;11.10;99.90;;;;;;4966310;28;20352;-76
2023/03/18 10:14:36;;;;;;;7.75;4.65;;;11.10;99.90;;;;;;5001457;28;20141;-76
2023/03/18 10:17:27;;;;;;;7.45;4.22;;;11.20;99.90;;;;;;4985286;28;20549;-76
2023/03/18 10:19:56;;;;;;;10.43;5.05;;;11.30;99.90;;;;;;5003037;28;20524;-76
2023/03/18 10:22:50;;;;;;;7.72;4.00;;;11.40;99.90;;;;;;4987748;28;20046;-77
2023/03/18 10:25:35;;;;;;;7.68;4.78;;;11.40;99.90;;;;;;5005343;28;20084;-77
2023/03/18 10:28:19;;;;;;;6.13;3.42;;;11.50;99.90;;;;;;5005175;28;20046;-77
2023/03/18 10:30:48;;;;;;;8.73;3.63;;;11.50;99.90;;;;;;5004859;28;20482;-76
2023/03/18 10:33:36;;;;;;;6.22;3.20;;;11.60;99.90;;;;;;5020538;28;20062;-76
2023/03/18 10:36:08;;;;;;;4.93;2.42;;;11.60;99.90;;;;;;5005171;28;20046;-77
2023/03/18 10:38:37;;;;;;;5.03;2.42;;;11.70;99.90;;;;;;4972210;28;20080;-77
2023/03/18 10:41:34;;;;;;;3.47;2.15;;;11.70;99.90;;;;;;5004748;28;20121;-79
2023/03/18 10:44:32;;;;;;;6.38;2.53;;;11.70;99.90;;;;;;4979488;28;20468;-79
2023/03/18 10:47:12;;;;;;;4.40;2.65;;;11.70;99.90;;;;;;4999561;28;20092;-78
2023/03/18 10:50:15;;;;;;;7.30;3.03;;;11.70;99.90;;;;;;4987765;28;20041;-82
2023/03/18 10:52:50;;;;;;;5.57;2.97;;;11.80;99.90;;;;;;5002529;28;20413;-82
2023/03/18 10:55:20;;;;;;;5.60;2.90;;;11.80;99.90;;;;;;5004431;28;20045;-90
2023/03/18 10:57:46;;;;;;;4.78;3.00;;;11.80;99.90;;;;;;5004396;28;20125;-78
2023/03/18 11:00:31;;;;;;;3.72;2.28;;;11.80;99.90;;;;;;4995453;28;20121;-75
2023/03/18 11:02:58;;;;;;;4.85;2.58;;;11.90;99.90;;;;;;5001377;28;20034;-79
2023/03/18 11:05:33;;;;;;;3.25;1.95;;;11.80;99.90;;;;;;5034772;28;20123;-76
2023/03/18 11:08:05;;;;;;;3.30;1.50;;;11.90;99.90;;;;;;4973423;28;20060;-76
2023/03/18 11:10:44;;;;;;;3.10;1.40;;;11.90;99.90;;;;;;4986982;28;20057;-79
2023/03/18 11:13:16;;;;;;;1.98;1.48;;;12.00;99.90;;;;;;4990711;28;20280;-79
2023/03/18 11:15:55;;;;;;;1.15;0.90;;;12.00;99.90;;;;;;5004675;28;20050;-75
2023/03/18 11:18:25;;;;;;;2.55;1.48;;;12.00;99.90;;;;;;5003563;28;20449;-76
2023/03/18 11:21:00;;;;;;;1.40;1.25;;;12.10;99.90;;;;;;5019715;28;20103;-76
2023/03/18 11:26:24;;;;;;;2.25;1.35;;;12.20;99.90;;;;;;5003625;28;20050;-76
2023/03/18 11:28:55;;;;;;;2.03;0.80;;;12.20;99.90;;;;;;5000442;28;20457;-79
2023/03/18 11:31:20;;;;;;;2.90;1.20;;;12.20;99.90;;;;;;5016058;28;20044;-77
2023/03/18 11:33:46;;;;;;;2.05;1.50;;;12.30;99.90;;;;;;5001551;28;20469;-78
2023/03/18 11:36:22;;;;;;;2.85;1.35;;;12.30;99.90;;;;;;4983535;28;20046;-77
2023/03/18 11:39:05;;;;;;;1.67;0.85;;;12.40;99.90;;;;;;5003548;28;20034;-77
2023/03/18 11:41:30;;;;;;;2.20;1.08;;;12.40;99.90;;;;;;5008967;28;20085;-77
2023/03/18 11:44:06;;;;;;;4.45;2.03;;;12.40;99.90;;;;;;4983849;28;20759;-78
2023/03/18 11:46:37;;;;;;;2.42;1.70;;;12.40;99.90;;;;;;5003878;28;20041;-76
2023/03/18 11:49:04;;;;;;;1.48;1.30;;;12.50;99.90;;;;;;5023134;28;20538;-77
2023/03/18 11:51:45;;;;;;;2.15;1.30;;;12.60;99.90;;;;;;5005958;28;20042;-77
2023/03/18 11:54:48;;;;;;;1.42;1.10;;;12.70;99.90;;;;;;5021810;28;20053;-77
2023/03/18 11:57:32;;;;;;;1.70;1.33;;;12.70;99.90;;;;;;4985631;28;20405;-77
2023/03/18 12:00:16;;;;;;;2.10;1.17;;;12.80;99.90;;;;;;5004371;28;20049;-77
2023/03/18 12:03:22;;;;;;;2.38;1.48;;;12.80;99.90;;;;;;5001668;28;20521;-77
2023/03/18 12:06:19;;;;;;;1.30;0.90;;;13.00;99.90;;;;;;5002764;28;20516;-75
2023/03/18 12:09:03;;;;;;;1.13;0.93;;;13.10;99.90;;;;;;5003769;28;20053;-76
2023/03/18 12:12:00;;;;;;;3.10;0.90;;;13.20;99.90;;;;;;5002923;28;20140;-76
2023/03/18 12:14:44;;;;;;;0.75;0.65;;;13.30;99.90;;;;;;4993879;28;20049;-77
2023/03/18 12:17:25;;;;;;;1.02;0.65;;;13.30;99.90;;;;;;5003605;28;20049;-77
2023/03/18 12:20:23;;;;;;;0.82;0.60;;;13.30;99.90;;;;;;5011439;28;20422;-77
2023/03/18 12:23:09;;;;;;;0.50;0.50;;;13.30;99.90;;;;;;5018854;28;20048;-75
2023/03/18 12:25:57;;;;;;;0.57;0.47;;;13.40;99.90;;;;;;4984781;28;20048;-76
2023/03/18 12:28:45;;;;;;;0.30;0.30;;;13.40;99.90;;;;;;5001448;28;20397;-76
2023/03/18 12:31:30;;;;;;;0.50;0.50;;;13.40;99.90;;;;;;5002069;28;20498;-76
2023/03/18 12:34:00;;;;;;;0.88;0.70;;;13.40;99.90;;;;;;5002519;28;20381;-76
2023/03/18 12:36:47;;;;;;;1.00;0.40;;;13.40;99.90;;;;;;5003492;28;20497;-76
2023/03/18 12:39:32;;;;;;;0.60;0.60;;;13.40;99.90;;;;;;4985181;28;20042;-76
2023/03/18 12:42:15;;;;;;;0.93;0.77;;;13.40;99.90;;;;;;5004475;28;20116;-77
2023/03/18 12:45:00;;;;;;;1.02;0.80;;;13.40;99.90;;;;;;4986693;28;20306;-76
2023/03/18 12:47:32;;;;;;;1.00;0.52;;;13.50;99.90;;;;;;5004699;28;20056;-74
2023/03/18 12:50:14;;;;;;;0.88;0.80;;;13.40;99.90;;;;;;5008764;28;20510;-75
2023/03/18 12:52:46;;;;;;;1.15;0.80;;;13.50;99.90;;;;;;5025274;28;20052;-75
2023/03/18 12:55:21;;;;;;;;;;;13.50;99.90;;;;;;4999164;28;20440;-75
2023/03/18 12:57:53;;;;;;;1.05;0.60;;;13.60;99.90;;;;;;4993322;28;19922;-76
2023/03/18 13:00:38;;;;;;;1.23;0.68;;;13.60;99.90;;;;;;4995023;28;20062;-76
2023/03/18 13:03:28;;;;;;;1.33;0.85;;;13.70;99.90;;;;;;5005668;28;20489;-76